Time;durP1;ratioP1;P1;durP2;ratioP2;P2;SDS_P1;SDS_P2;PMS_P1;PMS_P2;Temp;Humidity;BMP_temperature;BMP_pressure;BME280_temperature;BME280_humidity;BME280_pressure;Samples;Min_cycle;Max_cycle;Signal;HPM_P1;HPM_P2
2023/02/17 00:08:41;;;;;;;37.2;20.8;;;;;;;1.9;83.5;99360;;;;
2023/02/17 00:18:42;;;;;;;37.2;20.8;;;;;;;1.8;83.6;99360;;;;
2023/02/17 00:29:41;;;;;;;37.2;20.8;;;;;;;1.7;83.6;99360;;;;
2023/02/17 00:39:41;;;;;;;37.5;19.9;;;;;;;1.6;83.7;99350;;;;
2023/02/17 00:49:41;;;;;;;37.5;19.9;;;;;;;1.5;83.6;99340;;;;
2023/02/17 01:00:41;;;;;;;37.5;19.9;;;;;;;1.3;83.4;99330;;;;
2023/02/17 01:10:41;;;;;;;32.4;19;;;;;;;1.1;83.2;99320;;;;
2023/02/17 01:20:41;;;;;;;32.4;19;;;;;;;1;83.2;99310;;;;
2023/02/17 01:30:41;;;;;;;32.4;19;;;;;;;0.9;83.5;99280;;;;
2023/02/17 01:40:41;;;;;;;31;19.9;;;;;;;0.8;83.7;99270;;;;
2023/02/17 01:51:41;;;;;;;31;19.9;;;;;;;0.7;84.2;99260;;;;
2023/02/17 02:01:41;;;;;;;31;19.9;;;;;;;0.6;84.2;99270;;;;
2023/02/17 02:11:42;;;;;;;40;22;;;;;;;0.6;84.2;99260;;;;
2023/02/17 02:21:42;;;;;;;40;22;;;;;;;0.6;84.4;99260;;;;
2023/02/17 02:31:42;;;;;;;40;22;;;;;;;0.7;84.5;99260;;;;
2023/02/17 02:41:42;;;;;;;37.6;20.8;;;;;;;0.9;85.1;99260;;;;
2023/02/17 02:51:42;;;;;;;37.6;20.8;;;;;;;1.2;85.9;99260;;;;
2023/02/17 03:01:42;;;;;;;37.6;20.8;;;;;;;1.3;85.7;99260;;;;
2023/02/17 03:11:42;;;;;;;39.1;21.7;;;;;;;1.2;85.5;99260;;;;
2023/02/17 03:21:42;;;;;;;39.1;21.7;;;;;;;1.2;85.5;99240;;;;
2023/02/17 03:31:42;;;;;;;39.1;21.7;;;;;;;1.2;85.4;99240;;;;
2023/02/17 03:42:42;;;;;;;38.5;21;;;;;;;1.4;85.3;99240;;;;
2023/02/17 03:53:42;;;;;;;38.5;21;;;;;;;1.6;85.5;99240;;;;
2023/02/17 04:03:42;;;;;;;38.5;21;;;;;;;1.7;85.4;99230;;;;
2023/02/17 04:13:42;;;;;;;37.6;21.6;;;;;;;1.9;85.2;99220;;;;
2023/02/17 04:24:42;;;;;;;37.6;21.6;;;;;;;2.1;84.9;99210;;;;
2023/02/17 04:34:42;;;;;;;37.6;21.6;;;;;;;2.2;84.3;99220;;;;
2023/02/17 04:45:42;;;;;;;37.1;22.5;;;;;;;2.4;84.2;99210;;;;
2023/02/17 04:55:42;;;;;;;37.1;22.5;;;;;;;2.5;83.8;99200;;;;
2023/02/17 05:05:42;;;;;;;33.5;22.3;;;;;;;2.6;83.4;99200;;;;
2023/02/17 05:15:42;;;;;;;33.5;22.3;;;;;;;2.6;82.5;99210;;;;
2023/02/17 05:25:42;;;;;;;33.5;22.3;;;;;;;2.6;82.6;99190;;;;
2023/02/17 05:36:42;;;;;;;32.4;21.2;;;;;;;2.7;82.3;99190;;;;
2023/02/17 05:46:42;;;;;;;32.4;21.2;;;;;;;2.9;81.7;99190;;;;
2023/02/17 05:56:42;;;;;;;32.4;21.2;;;;;;;3;81.4;99180;;;;
2023/02/17 06:07:42;;;;;;;29.8;19.3;;;;;;;3.3;80.6;99160;;;;
2023/02/17 06:17:42;;;;;;;29.8;19.3;;;;;;;3.6;80.4;99170;;;;
2023/02/17 06:27:43;;;;;;;29.8;19.3;;;;;;;3.9;79.2;99150;;;;
2023/02/17 06:37:42;;;;;;;23.6;16.4;;;;;;;4.3;78.9;99140;;;;
2023/02/17 06:47:42;;;;;;;23.6;16.4;;;;;;;4.6;78.2;99120;;;;
2023/02/17 06:58:42;;;;;;;23.6;16.4;;;;;;;4.9;77.6;99140;;;;
2023/02/17 07:08:42;;;;;;;;;;;;;;;;;;;;;
2023/02/17 07:19:42;;;;;;;34.3;24.5;;;;;;;5.1;77.9;99150;;;;
2023/02/17 07:29:42;;;;;;;34.3;24.5;;;;;;;5.2;77.3;99150;;;;
2023/02/17 07:40:42;;;;;;;53.3;38.6;;;;;;;5.5;77.9;99140;;;;
2023/02/17 07:50:42;;;;;;;53.3;38.6;;;;;;;5.9;78;99130;;;;
2023/02/17 08:00:42;;;;;;;53.3;38.6;;;;;;;6.5;77.1;99110;;;;
2023/02/17 08:20:42;;;;;;;36.2;28.7;;;;;;;7.5;75.9;99100;;;;
2023/02/17 08:30:42;;;;;;;36.2;28.7;;;;;;;8;74.6;99080;;;;
2023/02/17 08:41:42;;;;;;;39.9;31.2;;;;;;;8.4;73.5;99080;;;;
2023/02/17 08:52:42;;;;;;;39.9;31.2;;;;;;;9;73;99070;;;;
2023/02/17 09:02:43;;;;;;;39.9;31.2;;;;;;;9.5;71.3;99060;;;;
2023/02/17 09:12:42;;;;;;;44.4;36.2;;;;;;;9.8;70.8;99060;;;;
2023/02/17 09:23:42;;;;;;;44.4;36.2;;;;;;;9.9;69.6;99060;;;;
2023/02/17 09:34:48;;;;;;;17.6;14.3;;;;;;;9.7;70.4;99050;;;;
2023/02/17 09:44:42;;;;;;;17.6;14.3;;;;;;;9.5;71.4;99040;;;;
2023/02/17 09:54:42;;;;;;;17.6;14.3;;;;;;;9.7;74.7;99030;;;;
2023/02/17 10:05:42;;;;;;;36;27.7;;;;;;;9.8;75.2;99040;;;;
2023/02/17 10:16:42;;;;;;;36;27.7;;;;;;;9.7;74.5;99020;;;;
2023/02/17 10:26:42;;;;;;;36;27.7;;;;;;;9.5;74.8;99010;;;;
2023/02/17 10:37:42;;;;;;;19.1;13.3;;;;;;;9.8;74.6;98990;;;;
2023/02/17 10:47:42;;;;;;;19.1;13.3;;;;;;;9.7;74.7;98990;;;;
2023/02/17 10:58:42;;;;;;;19.1;13.3;;;;;;;9.8;75.1;98970;;;;
2023/02/17 11:08:42;;;;;;;17;12.3;;;;;;;9.4;76.1;98960;;;;
2023/02/17 11:18:42;;;;;;;17;12.3;;;;;;;9.2;77.5;98950;;;;
2023/02/17 11:28:42;;;;;;;17;12.3;;;;;;;8.8;77.7;98940;;;;
2023/02/17 11:39:42;;;;;;;15.8;11.8;;;;;;;8.8;77.9;98920;;;;
2023/02/17 11:49:42;;;;;;;15.8;11.8;;;;;;;9;76.4;98910;;;;
2023/02/17 12:00:42;;;;;;;15.8;11.8;;;;;;;9;75.5;98880;;;;
2023/02/17 12:10:42;;;;;;;12;9.3;;;;;;;9;75.6;98870;;;;
2023/02/17 12:20:44;;;;;;;12;9.3;;;;;;;9.1;75.2;98870;;;;
2023/02/17 12:30:42;;;;;;;12;9.3;;;;;;;9.2;74.8;98860;;;;
2023/02/17 12:41:42;;;;;;;9.5;6.8;;;;;;;9.3;73.9;98860;;;;
2023/02/17 12:51:42;;;;;;;9.5;6.8;;;;;;;9.5;74.2;98840;;;;
2023/02/17 13:02:42;;;;;;;9.5;6.8;;;;;;;9.4;73.8;98830;;;;
2023/02/17 13:13:42;;;;;;;9.3;6.4;;;;;;;9.3;73.7;98820;;;;
2023/02/17 13:24:43;;;;;;;9.3;6.4;;;;;;;9.2;74.5;98810;;;;
2023/02/17 13:34:42;;;;;;;8;5.8;;;;;;;9.2;74.5;98790;;;;
2023/02/17 13:45:42;;;;;;;8;5.8;;;;;;;9.5;74.1;98770;;;;
2023/02/17 13:55:42;;;;;;;8;5.8;;;;;;;9.6;73.7;98760;;;;
2023/02/17 14:06:42;;;;;;;8.5;6;;;;;;;9.7;73.9;98740;;;;
2023/02/17 14:16:43;;;;;;;8.5;6;;;;;;;9.8;73.4;98730;;;;
2023/02/17 14:26:42;;;;;;;8.5;6;;;;;;;9.7;73.5;98720;;;;
2023/02/17 14:36:42;;;;;;;10.6;6.8;;;;;;;9.5;73.9;98710;;;;
2023/02/17 14:46:42;;;;;;;10.6;6.8;;;;;;;9.3;74.4;98680;;;;
2023/02/17 14:57:43;;;;;;;10.6;6.8;;;;;;;9.3;75;98670;;;;
2023/02/17 15:07:43;;;;;;;8.8;6.6;;;;;;;9.3;75.6;98660;;;;
2023/02/17 15:17:42;;;;;;;8.8;6.6;;;;;;;9.1;76.7;98650;;;;
2023/02/17 15:28:42;;;;;;;8.8;6.6;;;;;;;8.9;78.2;98640;;;;
2023/02/17 15:39:42;;;;;;;9.1;6.7;;;;;;;8.7;79;98620;;;;
2023/02/17 15:49:42;;;;;;;9.1;6.7;;;;;;;8.5;79.7;98600;;;;
2023/02/17 15:59:42;;;;;;;9.1;6.7;;;;;;;8.2;81.2;98570;;;;
2023/02/17 16:10:44;;;;;;;8.7;5.4;;;;;;;8;81.8;98540;;;;
2023/02/17 16:20:42;;;;;;;8.7;5.4;;;;;;;7.9;82.3;98540;;;;
2023/02/17 16:30:43;;;;;;;8.7;5.4;;;;;;;7.9;81.9;98520;;;;
2023/02/17 16:40:46;;;;;;;8.8;5.2;;;;;;;7.9;81.8;98510;;;;
2023/02/17 16:50:42;;;;;;;8.8;5.2;;;;;;;8.1;81;98510;;;;
2023/02/17 17:00:42;;;;;;;8.8;5.2;;;;;;;8.2;81.5;98500;;;;
2023/02/17 17:10:42;;;;;;;8.7;5.8;;;;;;;8.2;81.6;98490;;;;
2023/02/17 17:20:43;;;;;;;8.7;5.8;;;;;;;8.3;82;98470;;;;
2023/02/17 17:31:43;;;;;;;8.7;5.8;;;;;;;8.3;81.8;98460;;;;
2023/02/17 17:42:42;;;;;;;7.6;4.9;;;;;;;8.5;81.4;98450;;;;
2023/02/17 17:52:43;;;;;;;7.6;4.9;;;;;;;8.5;81;98420;;;;
2023/02/17 18:03:42;;;;;;;6.6;5.1;;;;;;;8.7;80.2;98420;;;;
2023/02/17 18:13:43;;;;;;;6.6;5.1;;;;;;;8.8;80.1;98420;;;;
2023/02/17 18:23:43;;;;;;;6.6;5.1;;;;;;;8.9;80;98440;;;;
2023/02/17 18:34:42;;;;;;;9.8;6.1;;;;;;;9;79.9;98430;;;;
2023/02/17 18:44:43;;;;;;;9.8;6.1;;;;;;;9;80.8;98420;;;;
2023/02/17 18:54:43;;;;;;;9.8;6.1;;;;;;;9;82.1;98410;;;;
2023/02/17 19:04:42;;;;;;;7.4;5;;;;;;;8.9;83.2;98400;;;;
2023/02/17 19:14:42;;;;;;;7.4;5;;;;;;;8.9;83;98410;;;;
2023/02/17 19:24:42;;;;;;;7.4;5;;;;;;;9;82.9;98410;;;;
2023/02/17 19:35:42;;;;;;;10.1;6.1;;;;;;;9.2;82.6;98420;;;;
2023/02/17 19:45:42;;;;;;;10.1;6.1;;;;;;;9.5;82;98420;;;;
2023/02/17 19:56:42;;;;;;;10.1;6.1;;;;;;;9.9;81;98430;;;;
2023/02/17 20:06:43;;;;;;;8.7;5.8;;;;;;;10.1;81.4;98420;;;;
2023/02/17 20:17:43;;;;;;;8.7;5.8;;;;;;;10.1;83.3;98420;;;;
2023/02/17 20:27:42;;;;;;;8.7;5.8;;;;;;;10.2;84.1;98440;;;;
2023/02/17 20:37:42;;;;;;;10.3;5.7;;;;;;;10.2;84.9;98420;;;;
2023/02/17 20:47:42;;;;;;;10.3;5.7;;;;;;;10.1;85.1;98420;;;;
2023/02/17 20:57:43;;;;;;;10.3;5.7;;;;;;;10.1;84.7;98420;;;;
2023/02/17 21:08:43;;;;;;;7.9;5;;;;;;;10.1;84.5;98410;;;;
2023/02/17 21:18:43;;;;;;;7.9;5;;;;;;;10.1;84;98400;;;;
2023/02/17 21:29:43;;;;;;;7.9;5;;;;;;;10.2;83.5;98390;;;;
2023/02/17 21:39:42;;;;;;;7.5;5.3;;;;;;;10.3;82.7;98380;;;;
2023/02/17 21:50:43;;;;;;;7.5;5.3;;;;;;;10.5;82;98370;;;;
2023/02/17 22:00:42;;;;;;;7.5;5.3;;;;;;;10.6;81.3;98370;;;;
2023/02/17 22:10:43;;;;;;;7.1;4.3;;;;;;;10.9;80.9;98350;;;;
2023/02/17 22:21:43;;;;;;;7.1;4.3;;;;;;;10.9;80.9;98330;;;;
2023/02/17 22:32:43;;;;;;;7.1;4.3;;;;;;;10.9;80.7;98320;;;;
2023/02/17 22:42:43;;;;;;;6.2;3.5;;;;;;;10.9;80.4;98330;;;;
2023/02/17 22:52:43;;;;;;;6.2;3.5;;;;;;;11.1;79.8;98340;;;;
2023/02/17 23:03:43;;;;;;;5.6;3.3;;;;;;;11.5;78.1;98380;;;;
2023/02/17 23:14:43;;;;;;;5.6;3.3;;;;;;;11.5;77.3;98340;;;;
2023/02/17 23:24:43;;;;;;;5.6;3.3;;;;;;;11.6;77.3;98370;;;;
2023/02/17 23:35:43;;;;;;;7.3;3.9;;;;;;;11.3;81.2;98390;;;;
2023/02/17 23:46:43;;;;;;;7.3;3.9;;;;;;;10.8;84;98400;;;;
2023/02/17 23:56:43;;;;;;;7.3;3.9;;;;;;;10.7;84.4;98400;;;;
